sensor_id;sensor_type;location;lat;lon;timestamp;P1;durP1;ratioP1;P2;durP2;ratioP2
2772;SDS011;1394;47.044;15.744;2022-12-13T00:01:58;25.50;;;2.07;;
2772;SDS011;1394;47.044;15.744;2022-12-13T00:04:25;25.10;;;1.50;;
2772;SDS011;1394;47.044;15.744;2022-12-13T00:06:52;25.27;;;1.73;;
2772;SDS011;1394;47.044;15.744;2022-12-13T00:09:20;25.27;;;1.90;;
2772;SDS011;1394;47.044;15.744;2022-12-13T00:11:47;26.03;;;1.90;;
2772;SDS011;1394;47.044;15.744;2022-12-13T00:14:15;25.43;;;1.80;;
2772;SDS011;1394;47.044;15.744;2022-12-13T00:16:43;25.90;;;2.13;;
2772;SDS011;1394;47.044;15.744;2022-12-13T00:19:13;25.47;;;1.90;;
2772;SDS011;1394;47.044;15.744;2022-12-13T00:21:40;26.43;;;2.47;;
2772;SDS011;1394;47.044;15.744;2022-12-13T00:24:08;25.53;;;2.13;;
2772;SDS011;1394;47.044;15.744;2022-12-13T00:26:35;26.20;;;2.27;;
2772;SDS011;1394;47.044;15.744;2022-12-13T00:29:06;25.73;;;2.30;;
2772;SDS011;1394;47.044;15.744;2022-12-13T00:31:33;26.93;;;1.93;;
2772;SDS011;1394;47.044;15.744;2022-12-13T00:34:00;26.60;;;2.27;;
2772;SDS011;1394;47.044;15.744;2022-12-13T00:36:29;25.70;;;1.90;;
2772;SDS011;1394;47.044;15.744;2022-12-13T00:38:56;25.70;;;2.17;;
2772;SDS011;1394;47.044;15.744;2022-12-13T00:41:27;25.20;;;1.90;;
2772;SDS011;1394;47.044;15.744;2022-12-13T00:43:55;25.20;;;1.70;;
2772;SDS011;1394;47.044;15.744;2022-12-13T00:46:23;25.27;;;1.90;;
2772;SDS011;1394;47.044;15.744;2022-12-13T00:48:51;24.90;;;1.60;;
2772;SDS011;1394;47.044;15.744;2022-12-13T00:51:22;25.67;;;1.60;;
2772;SDS011;1394;47.044;15.744;2022-12-13T00:53:51;25.00;;;1.63;;
2772;SDS011;1394;47.044;15.744;2022-12-13T00:56:20;25.60;;;1.97;;
2772;SDS011;1394;47.044;15.744;2022-12-13T00:58:50;25.33;;;1.90;;
2772;SDS011;1394;47.044;15.744;2022-12-13T01:01:18;25.27;;;1.67;;
2772;SDS011;1394;47.044;15.744;2022-12-13T01:03:45;25.40;;;1.80;;
2772;SDS011;1394;47.044;15.744;2022-12-13T01:06:13;25.60;;;1.77;;
2772;SDS011;1394;47.044;15.744;2022-12-13T01:08:41;26.17;;;2.10;;
2772;SDS011;1394;47.044;15.744;2022-12-13T01:11:10;25.23;;;2.10;;
2772;SDS011;1394;47.044;15.744;2022-12-13T01:13:38;25.33;;;1.90;;
2772;SDS011;1394;47.044;15.744;2022-12-13T01:16:06;26.50;;;2.50;;
2772;SDS011;1394;47.044;15.744;2022-12-13T01:18:33;25.20;;;1.90;;
2772;SDS011;1394;47.044;15.744;2022-12-13T01:21:02;25.23;;;1.70;;
2772;SDS011;1394;47.044;15.744;2022-12-13T01:23:30;25.73;;;2.20;;
2772;SDS011;1394;47.044;15.744;2022-12-13T01:25:57;26.00;;;2.10;;
2772;SDS011;1394;47.044;15.744;2022-12-13T01:28:26;25.00;;;2.10;;
2772;SDS011;1394;47.044;15.744;2022-12-13T01:30:54;25.17;;;2.07;;
2772;SDS011;1394;47.044;15.744;2022-12-13T01:33:21;25.53;;;2.03;;
2772;SDS011;1394;47.044;15.744;2022-12-13T01:35:49;25.47;;;2.20;;
2772;SDS011;1394;47.044;15.744;2022-12-13T01:38:16;25.50;;;1.90;;
2772;SDS011;1394;47.044;15.744;2022-12-13T01:40:44;25.17;;;1.90;;
2772;SDS011;1394;47.044;15.744;2022-12-13T01:43:12;25.70;;;2.23;;
2772;SDS011;1394;47.044;15.744;2022-12-13T01:45:40;25.40;;;2.10;;
2772;SDS011;1394;47.044;15.744;2022-12-13T01:48:08;25.60;;;2.17;;
2772;SDS011;1394;47.044;15.744;2022-12-13T01:50:40;25.60;;;2.10;;
2772;SDS011;1394;47.044;15.744;2022-12-13T01:53:08;26.10;;;2.03;;
2772;SDS011;1394;47.044;15.744;2022-12-13T01:55:37;26.30;;;2.03;;
2772;SDS011;1394;47.044;15.744;2022-12-13T01:58:05;25.70;;;2.30;;
2772;SDS011;1394;47.044;15.744;2022-12-13T02:00:32;25.93;;;1.90;;
2772;SDS011;1394;47.044;15.744;2022-12-13T02:03:02;25.30;;;1.90;;
2772;SDS011;1394;47.044;15.744;2022-12-13T02:05:32;25.67;;;2.27;;
2772;SDS011;1394;47.044;15.744;2022-12-13T02:08:00;24.90;;;2.00;;
2772;SDS011;1394;47.044;15.744;2022-12-13T02:10:30;25.30;;;2.10;;
2772;SDS011;1394;47.044;15.744;2022-12-13T02:12:58;25.80;;;1.97;;
2772;SDS011;1394;47.044;15.744;2022-12-13T02:15:27;26.90;;;2.57;;
2772;SDS011;1394;47.044;15.744;2022-12-13T02:18:08;25.53;;;2.03;;
2772;SDS011;1394;47.044;15.744;2022-12-13T02:23:26;26.90;;;2.30;;
2772;SDS011;1394;47.044;15.744;2022-12-13T02:26:16;25.80;;;2.27;;
2772;SDS011;1394;47.044;15.744;2022-12-13T02:28:49;25.30;;;2.00;;
2772;SDS011;1394;47.044;15.744;2022-12-13T02:31:24;25.40;;;1.73;;
2772;SDS011;1394;47.044;15.744;2022-12-13T02:33:55;25.80;;;2.30;;
2772;SDS011;1394;47.044;15.744;2022-12-13T02:36:26;25.37;;;2.10;;
2772;SDS011;1394;47.044;15.744;2022-12-13T02:38:57;25.13;;;2.00;;
2772;SDS011;1394;47.044;15.744;2022-12-13T02:41:26;25.80;;;2.10;;
2772;SDS011;1394;47.044;15.744;2022-12-13T02:43:59;25.57;;;2.00;;
2772;SDS011;1394;47.044;15.744;2022-12-13T02:46:31;25.20;;;1.73;;
2772;SDS011;1394;47.044;15.744;2022-12-13T02:48:59;25.47;;;2.03;;
2772;SDS011;1394;47.044;15.744;2022-12-13T02:51:26;25.20;;;1.60;;
2772;SDS011;1394;47.044;15.744;2022-12-13T02:53:54;25.10;;;1.67;;
2772;SDS011;1394;47.044;15.744;2022-12-13T02:56:22;25.97;;;2.00;;
2772;SDS011;1394;47.044;15.744;2022-12-13T02:58:52;25.30;;;1.83;;
2772;SDS011;1394;47.044;15.744;2022-12-13T03:01:26;25.67;;;1.70;;
2772;SDS011;1394;47.044;15.744;2022-12-13T03:04:00;26.00;;;1.73;;
2772;SDS011;1394;47.044;15.744;2022-12-13T03:06:38;24.90;;;1.70;;
2772;SDS011;1394;47.044;15.744;2022-12-13T03:09:12;25.27;;;1.70;;
2772;SDS011;1394;47.044;15.744;2022-12-13T03:14:45;24.80;;;1.70;;
2772;SDS011;1394;47.044;15.744;2022-12-13T03:17:15;26.00;;;1.67;;
2772;SDS011;1394;47.044;15.744;2022-12-13T03:19:48;24.97;;;1.73;;
2772;SDS011;1394;47.044;15.744;2022-12-13T03:22:17;25.20;;;1.67;;
2772;SDS011;1394;47.044;15.744;2022-12-13T03:24:44;24.83;;;1.50;;
2772;SDS011;1394;47.044;15.744;2022-12-13T03:27:12;25.07;;;1.70;;
2772;SDS011;1394;47.044;15.744;2022-12-13T03:29:39;25.30;;;1.90;;
2772;SDS011;1394;47.044;15.744;2022-12-13T03:32:06;24.93;;;1.77;;
2772;SDS011;1394;47.044;15.744;2022-12-13T03:34:34;25.33;;;1.87;;
2772;SDS011;1394;47.044;15.744;2022-12-13T03:37:02;26.60;;;2.30;;
2772;SDS011;1394;47.044;15.744;2022-12-13T03:39:30;27.63;;;2.50;;
2772;SDS011;1394;47.044;15.744;2022-12-13T03:41:59;25.57;;;2.17;;
2772;SDS011;1394;47.044;15.744;2022-12-13T03:44:29;25.30;;;2.00;;
2772;SDS011;1394;47.044;15.744;2022-12-13T03:46:56;26.00;;;2.20;;
2772;SDS011;1394;47.044;15.744;2022-12-13T03:49:23;28.03;;;2.27;;
2772;SDS011;1394;47.044;15.744;2022-12-13T03:51:50;25.70;;;2.00;;
2772;SDS011;1394;47.044;15.744;2022-12-13T03:54:19;26.50;;;2.20;;
2772;SDS011;1394;47.044;15.744;2022-12-13T03:56:46;25.87;;;2.20;;
2772;SDS011;1394;47.044;15.744;2022-12-13T03:59:13;25.63;;;1.90;;
2772;SDS011;1394;47.044;15.744;2022-12-13T04:01:41;25.80;;;2.03;;
2772;SDS011;1394;47.044;15.744;2022-12-13T04:04:08;25.80;;;2.50;;
2772;SDS011;1394;47.044;15.744;2022-12-13T04:06:35;25.30;;;2.00;;
2772;SDS011;1394;47.044;15.744;2022-12-13T04:09:16;25.67;;;2.30;;
2772;SDS011;1394;47.044;15.744;2022-12-13T04:11:45;26.93;;;2.27;;
2772;SDS011;1394;47.044;15.744;2022-12-13T04:14:30;25.47;;;1.87;;
2772;SDS011;1394;47.044;15.744;2022-12-13T04:16:57;25.87;;;2.00;;
2772;SDS011;1394;47.044;15.744;2022-12-13T04:19:26;26.40;;;2.40;;
2772;SDS011;1394;47.044;15.744;2022-12-13T04:21:54;25.00;;;2.37;;
2772;SDS011;1394;47.044;15.744;2022-12-13T04:24:21;26.50;;;2.20;;
2772;SDS011;1394;47.044;15.744;2022-12-13T04:26:50;25.45;;;2.42;;
2772;SDS011;1394;47.044;15.744;2022-12-13T04:29:17;24.87;;;1.77;;
2772;SDS011;1394;47.044;15.744;2022-12-13T04:31:45;26.33;;;2.40;;
2772;SDS011;1394;47.044;15.744;2022-12-13T04:34:12;26.00;;;2.20;;
2772;SDS011;1394;47.044;15.744;2022-12-13T04:36:39;25.87;;;2.10;;
2772;SDS011;1394;47.044;15.744;2022-12-13T04:39:07;26.40;;;2.20;;
2772;SDS011;1394;47.044;15.744;2022-12-13T04:41:34;25.07;;;1.93;;
2772;SDS011;1394;47.044;15.744;2022-12-13T04:44:03;24.87;;;2.07;;
2772;SDS011;1394;47.044;15.744;2022-12-13T04:46:31;25.00;;;2.03;;
2772;SDS011;1394;47.044;15.744;2022-12-13T04:48:58;26.00;;;2.00;;
2772;SDS011;1394;47.044;15.744;2022-12-13T04:51:26;25.17;;;2.00;;
2772;SDS011;1394;47.044;15.744;2022-12-13T04:53:53;25.70;;;2.20;;
2772;SDS011;1394;47.044;15.744;2022-12-13T04:56:20;25.50;;;2.30;;
2772;SDS011;1394;47.044;15.744;2022-12-13T04:58:48;25.13;;;1.80;;
2772;SDS011;1394;47.044;15.744;2022-12-13T05:01:17;25.20;;;2.17;;
2772;SDS011;1394;47.044;15.744;2022-12-13T05:03:45;25.10;;;1.80;;
2772;SDS011;1394;47.044;15.744;2022-12-13T05:06:12;26.10;;;2.50;;
2772;SDS011;1394;47.044;15.744;2022-12-13T05:08:40;26.77;;;2.30;;
2772;SDS011;1394;47.044;15.744;2022-12-13T05:11:08;25.77;;;2.37;;
2772;SDS011;1394;47.044;15.744;2022-12-13T05:13:35;25.00;;;2.10;;
2772;SDS011;1394;47.044;15.744;2022-12-13T05:16:03;26.17;;;2.20;;
2772;SDS011;1394;47.044;15.744;2022-12-13T05:18:32;26.50;;;2.47;;
2772;SDS011;1394;47.044;15.744;2022-12-13T05:21:00;25.17;;;1.80;;
2772;SDS011;1394;47.044;15.744;2022-12-13T05:23:28;26.00;;;2.43;;
2772;SDS011;1394;47.044;15.744;2022-12-13T05:25:56;25.47;;;2.40;;
2772;SDS011;1394;47.044;15.744;2022-12-13T05:28:23;25.37;;;2.40;;
2772;SDS011;1394;47.044;15.744;2022-12-13T05:30:52;24.93;;;2.20;;
2772;SDS011;1394;47.044;15.744;2022-12-13T05:33:19;25.37;;;2.27;;
2772;SDS011;1394;47.044;15.744;2022-12-13T05:35:49;25.50;;;2.30;;
2772;SDS011;1394;47.044;15.744;2022-12-13T05:38:16;25.13;;;2.07;;
2772;SDS011;1394;47.044;15.744;2022-12-13T05:40:43;28.40;;;2.23;;
2772;SDS011;1394;47.044;15.744;2022-12-13T05:43:10;26.43;;;2.30;;
2772;SDS011;1394;47.044;15.744;2022-12-13T05:45:38;25.43;;;2.10;;
2772;SDS011;1394;47.044;15.744;2022-12-13T05:48:06;25.20;;;2.30;;
2772;SDS011;1394;47.044;15.744;2022-12-13T05:50:35;25.60;;;2.50;;
2772;SDS011;1394;47.044;15.744;2022-12-13T05:53:05;25.07;;;1.87;;
2772;SDS011;1394;47.044;15.744;2022-12-13T05:55:32;26.00;;;2.33;;
2772;SDS011;1394;47.044;15.744;2022-12-13T05:57:59;25.53;;;2.37;;
2772;SDS011;1394;47.044;15.744;2022-12-13T06:00:26;25.10;;;1.97;;
2772;SDS011;1394;47.044;15.744;2022-12-13T06:02:54;26.00;;;2.70;;
2772;SDS011;1394;47.044;15.744;2022-12-13T06:05:21;26.13;;;2.87;;
2772;SDS011;1394;47.044;15.744;2022-12-13T06:07:48;25.93;;;2.53;;
2772;SDS011;1394;47.044;15.744;2022-12-13T06:10:17;25.60;;;2.57;;
2772;SDS011;1394;47.044;15.744;2022-12-13T06:12:44;26.80;;;2.47;;
2772;SDS011;1394;47.044;15.744;2022-12-13T06:15:12;25.60;;;2.53;;
2772;SDS011;1394;47.044;15.744;2022-12-13T06:17:39;26.40;;;2.00;;
2772;SDS011;1394;47.044;15.744;2022-12-13T06:20:07;25.67;;;2.13;;
2772;SDS011;1394;47.044;15.744;2022-12-13T06:22:35;26.37;;;2.10;;
2772;SDS011;1394;47.044;15.744;2022-12-13T06:25:02;26.87;;;3.00;;
2772;SDS011;1394;47.044;15.744;2022-12-13T06:27:32;25.80;;;2.53;;
2772;SDS011;1394;47.044;15.744;2022-12-13T06:30:00;27.23;;;2.83;;
2772;SDS011;1394;47.044;15.744;2022-12-13T06:32:27;26.27;;;2.90;;
2772;SDS011;1394;47.044;15.744;2022-12-13T06:34:54;26.47;;;3.07;;
2772;SDS011;1394;47.044;15.744;2022-12-13T06:37:22;27.10;;;2.80;;
2772;SDS011;1394;47.044;15.744;2022-12-13T06:39:49;27.97;;;3.20;;
2772;SDS011;1394;47.044;15.744;2022-12-13T06:42:17;26.40;;;3.27;;
2772;SDS011;1394;47.044;15.744;2022-12-13T06:44:46;26.37;;;3.30;;
2772;SDS011;1394;47.044;15.744;2022-12-13T06:47:15;27.47;;;3.77;;
2772;SDS011;1394;47.044;15.744;2022-12-13T06:49:43;26.00;;;2.67;;
2772;SDS011;1394;47.044;15.744;2022-12-13T06:52:10;28.30;;;4.07;;
2772;SDS011;1394;47.044;15.744;2022-12-13T06:54:38;27.37;;;3.50;;
2772;SDS011;1394;47.044;15.744;2022-12-13T06:57:06;34.40;;;10.00;;
2772;SDS011;1394;47.044;15.744;2022-12-13T06:59:33;30.73;;;6.33;;
2772;SDS011;1394;47.044;15.744;2022-12-13T07:02:02;26.00;;;2.90;;
2772;SDS011;1394;47.044;15.744;2022-12-13T07:04:30;26.83;;;2.67;;
2772;SDS011;1394;47.044;15.744;2022-12-13T07:06:57;35.70;;;7.13;;
2772;SDS011;1394;47.044;15.744;2022-12-13T07:09:24;47.40;;;12.23;;
2772;SDS011;1394;47.044;15.744;2022-12-13T07:11:52;35.70;;;7.40;;
2772;SDS011;1394;47.044;15.744;2022-12-13T07:14:19;33.50;;;6.37;;
2772;SDS011;1394;47.044;15.744;2022-12-13T07:16:46;36.90;;;6.67;;
2772;SDS011;1394;47.044;15.744;2022-12-13T07:19:16;28.30;;;4.10;;
2772;SDS011;1394;47.044;15.744;2022-12-13T07:21:44;29.20;;;4.23;;
2772;SDS011;1394;47.044;15.744;2022-12-13T07:24:11;30.97;;;3.20;;
2772;SDS011;1394;47.044;15.744;2022-12-13T07:26:38;26.90;;;3.27;;
2772;SDS011;1394;47.044;15.744;2022-12-13T07:29:06;28.40;;;3.70;;
2772;SDS011;1394;47.044;15.744;2022-12-13T07:31:33;27.90;;;3.17;;
2772;SDS011;1394;47.044;15.744;2022-12-13T07:34:01;27.47;;;3.20;;
2772;SDS011;1394;47.044;15.744;2022-12-13T07:36:30;27.73;;;3.53;;
2772;SDS011;1394;47.044;15.744;2022-12-13T07:38:57;28.50;;;4.67;;
2772;SDS011;1394;47.044;15.744;2022-12-13T07:41:25;27.20;;;4.20;;
2772;SDS011;1394;47.044;15.744;2022-12-13T07:43:52;28.80;;;4.37;;
2772;SDS011;1394;47.044;15.744;2022-12-13T07:46:20;26.43;;;2.83;;
2772;SDS011;1394;47.044;15.744;2022-12-13T07:48:47;26.70;;;3.17;;
2772;SDS011;1394;47.044;15.744;2022-12-13T07:51:14;27.00;;;3.00;;
2772;SDS011;1394;47.044;15.744;2022-12-13T07:53:43;26.73;;;3.00;;
2772;SDS011;1394;47.044;15.744;2022-12-13T07:56:11;27.33;;;3.70;;
2772;SDS011;1394;47.044;15.744;2022-12-13T07:58:38;28.57;;;4.17;;
2772;SDS011;1394;47.044;15.744;2022-12-13T08:01:07;26.87;;;3.30;;
2772;SDS011;1394;47.044;15.744;2022-12-13T08:03:36;26.40;;;3.10;;
2772;SDS011;1394;47.044;15.744;2022-12-13T08:06:04;26.63;;;3.10;;
2772;SDS011;1394;47.044;15.744;2022-12-13T08:08:32;25.73;;;2.63;;
2772;SDS011;1394;47.044;15.744;2022-12-13T08:11:02;25.93;;;2.60;;
2772;SDS011;1394;47.044;15.744;2022-12-13T08:13:29;26.13;;;2.83;;
2772;SDS011;1394;47.044;15.744;2022-12-13T08:15:57;26.03;;;2.90;;
2772;SDS011;1394;47.044;15.744;2022-12-13T08:18:25;27.57;;;3.50;;
2772;SDS011;1394;47.044;15.744;2022-12-13T08:20:56;30.30;;;5.20;;
2772;SDS011;1394;47.044;15.744;2022-12-13T08:23:23;28.00;;;3.83;;
2772;SDS011;1394;47.044;15.744;2022-12-13T08:25:51;28.97;;;4.80;;
2772;SDS011;1394;47.044;15.744;2022-12-13T08:28:20;26.37;;;2.70;;
2772;SDS011;1394;47.044;15.744;2022-12-13T08:30:47;26.57;;;2.90;;
2772;SDS011;1394;47.044;15.744;2022-12-13T08:33:16;28.30;;;2.97;;
2772;SDS011;1394;47.044;15.744;2022-12-13T08:35:43;27.80;;;3.33;;
2772;SDS011;1394;47.044;15.744;2022-12-13T08:38:11;26.63;;;2.63;;
2772;SDS011;1394;47.044;15.744;2022-12-13T08:40:38;26.43;;;2.70;;
2772;SDS011;1394;47.044;15.744;2022-12-13T08:43:05;27.10;;;3.00;;
2772;SDS011;1394;47.044;15.744;2022-12-13T08:45:34;27.67;;;3.17;;
2772;SDS011;1394;47.044;15.744;2022-12-13T08:48:02;26.57;;;3.00;;
2772;SDS011;1394;47.044;15.744;2022-12-13T08:50:29;27.27;;;2.97;;
2772;SDS011;1394;47.044;15.744;2022-12-13T08:52:57;26.70;;;2.77;;
2772;SDS011;1394;47.044;15.744;2022-12-13T08:55:24;27.53;;;4.70;;
2772;SDS011;1394;47.044;15.744;2022-12-13T08:57:51;27.70;;;3.10;;
2772;SDS011;1394;47.044;15.744;2022-12-13T09:00:18;26.50;;;2.80;;
2772;SDS011;1394;47.044;15.744;2022-12-13T09:02:47;27.03;;;3.20;;
2772;SDS011;1394;47.044;15.744;2022-12-13T09:05:14;25.87;;;2.37;;
2772;SDS011;1394;47.044;15.744;2022-12-13T09:07:42;30.03;;;2.93;;
2772;SDS011;1394;47.044;15.744;2022-12-13T09:10:09;26.20;;;2.27;;
2772;SDS011;1394;47.044;15.744;2022-12-13T09:12:39;26.37;;;2.50;;
2772;SDS011;1394;47.044;15.744;2022-12-13T09:15:07;26.27;;;2.40;;
2772;SDS011;1394;47.044;15.744;2022-12-13T09:17:35;28.17;;;2.37;;
2772;SDS011;1394;47.044;15.744;2022-12-13T09:20:06;25.60;;;2.53;;
2772;SDS011;1394;47.044;15.744;2022-12-13T09:22:35;25.93;;;2.60;;
2772;SDS011;1394;47.044;15.744;2022-12-13T09:25:03;26.17;;;2.33;;
2772;SDS011;1394;47.044;15.744;2022-12-13T09:27:31;26.63;;;2.37;;
2772;SDS011;1394;47.044;15.744;2022-12-13T09:29:58;25.83;;;2.07;;
2772;SDS011;1394;47.044;15.744;2022-12-13T09:32:26;26.60;;;1.90;;
2772;SDS011;1394;47.044;15.744;2022-12-13T09:34:54;24.80;;;1.60;;
2772;SDS011;1394;47.044;15.744;2022-12-13T09:37:23;27.60;;;1.70;;
2772;SDS011;1394;47.044;15.744;2022-12-13T09:39:50;25.20;;;1.93;;
2772;SDS011;1394;47.044;15.744;2022-12-13T09:42:18;25.20;;;1.90;;
2772;SDS011;1394;47.044;15.744;2022-12-13T09:44:48;33.63;;;2.20;;
2772;SDS011;1394;47.044;15.744;2022-12-13T09:47:19;26.17;;;1.90;;
2772;SDS011;1394;47.044;15.744;2022-12-13T09:49:48;26.27;;;2.00;;
2772;SDS011;1394;47.044;15.744;2022-12-13T09:52:16;25.17;;;1.80;;
2772;SDS011;1394;47.044;15.744;2022-12-13T09:54:46;25.30;;;1.80;;
2772;SDS011;1394;47.044;15.744;2022-12-13T09:57:14;25.50;;;2.03;;
2772;SDS011;1394;47.044;15.744;2022-12-13T09:59:45;25.63;;;1.60;;
2772;SDS011;1394;47.044;15.744;2022-12-13T10:02:15;25.50;;;1.90;;
2772;SDS011;1394;47.044;15.744;2022-12-13T10:04:43;29.20;;;2.10;;
2772;SDS011;1394;47.044;15.744;2022-12-13T10:07:11;25.07;;;1.60;;
2772;SDS011;1394;47.044;15.744;2022-12-13T10:09:41;25.93;;;2.40;;
2772;SDS011;1394;47.044;15.744;2022-12-13T10:12:11;25.90;;;2.10;;
2772;SDS011;1394;47.044;15.744;2022-12-13T10:14:39;26.37;;;2.33;;
2772;SDS011;1394;47.044;15.744;2022-12-13T10:17:12;25.37;;;1.80;;
2772;SDS011;1394;47.044;15.744;2022-12-13T10:19:42;26.27;;;1.90;;
2772;SDS011;1394;47.044;15.744;2022-12-13T10:22:11;25.40;;;1.90;;
2772;SDS011;1394;47.044;15.744;2022-12-13T10:24:49;25.13;;;2.00;;
2772;SDS011;1394;47.044;15.744;2022-12-13T10:27:19;25.40;;;2.03;;
2772;SDS011;1394;47.044;15.744;2022-12-13T10:29:59;26.60;;;2.23;;
2772;SDS011;1394;47.044;15.744;2022-12-13T10:32:43;25.80;;;2.20;;
2772;SDS011;1394;47.044;15.744;2022-12-13T10:35:21;26.07;;;2.27;;
2772;SDS011;1394;47.044;15.744;2022-12-13T10:37:49;26.07;;;1.60;;
2772;SDS011;1394;47.044;15.744;2022-12-13T10:40:23;25.10;;;1.57;;
2772;SDS011;1394;47.044;15.744;2022-12-13T10:43:05;24.90;;;1.70;;
2772;SDS011;1394;47.044;15.744;2022-12-13T10:45:32;25.37;;;2.10;;
2772;SDS011;1394;47.044;15.744;2022-12-13T10:47:59;25.97;;;2.20;;
2772;SDS011;1394;47.044;15.744;2022-12-13T10:50:28;25.77;;;1.83;;
2772;SDS011;1394;47.044;15.744;2022-12-13T10:52:57;25.67;;;1.70;;
2772;SDS011;1394;47.044;15.744;2022-12-13T10:55:27;25.57;;;2.13;;
2772;SDS011;1394;47.044;15.744;2022-12-13T10:57:59;25.70;;;2.20;;
2772;SDS011;1394;47.044;15.744;2022-12-13T11:00:33;26.77;;;2.23;;
2772;SDS011;1394;47.044;15.744;2022-12-13T11:03:01;25.70;;;2.20;;
2772;SDS011;1394;47.044;15.744;2022-12-13T11:05:29;25.73;;;2.07;;
2772;SDS011;1394;47.044;15.744;2022-12-13T11:08:11;25.60;;;2.10;;
2772;SDS011;1394;47.044;15.744;2022-12-13T11:10:38;25.80;;;2.27;;
2772;SDS011;1394;47.044;15.744;2022-12-13T11:13:17;25.83;;;2.20;;
2772;SDS011;1394;47.044;15.744;2022-12-13T11:15:50;26.57;;;2.03;;
2772;SDS011;1394;47.044;15.744;2022-12-13T11:18:19;25.80;;;2.30;;
2772;SDS011;1394;47.044;15.744;2022-12-13T11:20:51;26.03;;;2.20;;
2772;SDS011;1394;47.044;15.744;2022-12-13T11:23:20;26.20;;;2.60;;
2772;SDS011;1394;47.044;15.744;2022-12-13T11:25:52;26.07;;;2.00;;
2772;SDS011;1394;47.044;15.744;2022-12-13T11:28:41;25.73;;;2.43;;
2772;SDS011;1394;47.044;15.744;2022-12-13T11:31:17;25.40;;;2.03;;
2772;SDS011;1394;47.044;15.744;2022-12-13T11:33:50;25.00;;;2.00;;
2772;SDS011;1394;47.044;15.744;2022-12-13T11:36:22;25.40;;;2.10;;
2772;SDS011;1394;47.044;15.744;2022-12-13T11:38:56;25.70;;;2.20;;
2772;SDS011;1394;47.044;15.744;2022-12-13T11:41:26;25.53;;;2.30;;
2772;SDS011;1394;47.044;15.744;2022-12-13T11:43:55;25.90;;;2.80;;
2772;SDS011;1394;47.044;15.744;2022-12-13T11:46:28;25.90;;;2.27;;
2772;SDS011;1394;47.044;15.744;2022-12-13T11:49:02;26.07;;;2.43;;
2772;SDS011;1394;47.044;15.744;2022-12-13T11:51:32;25.60;;;2.10;;
2772;SDS011;1394;47.044;15.744;2022-12-13T11:54:06;26.73;;;2.60;;
2772;SDS011;1394;47.044;15.744;2022-12-13T11:56:37;26.90;;;2.50;;
2772;SDS011;1394;47.044;15.744;2022-12-13T11:59:07;25.50;;;2.23;;
2772;SDS011;1394;47.044;15.744;2022-12-13T12:01:38;25.60;;;2.23;;
2772;SDS011;1394;47.044;15.744;2022-12-13T12:04:11;25.70;;;2.30;;
2772;SDS011;1394;47.044;15.744;2022-12-13T12:06:41;26.40;;;2.70;;
2772;SDS011;1394;47.044;15.744;2022-12-13T12:09:10;25.13;;;2.00;;
2772;SDS011;1394;47.044;15.744;2022-12-13T12:11:41;26.40;;;2.37;;
2772;SDS011;1394;47.044;15.744;2022-12-13T12:14:11;25.40;;;2.33;;
2772;SDS011;1394;47.044;15.744;2022-12-13T12:16:42;25.97;;;2.00;;
2772;SDS011;1394;47.044;15.744;2022-12-13T12:19:11;25.60;;;2.07;;
2772;SDS011;1394;47.044;15.744;2022-12-13T12:21:44;25.87;;;2.50;;
2772;SDS011;1394;47.044;15.744;2022-12-13T12:24:16;26.50;;;2.60;;
2772;SDS011;1394;47.044;15.744;2022-12-13T12:26:47;26.37;;;2.63;;
2772;SDS011;1394;47.044;15.744;2022-12-13T12:32:11;25.73;;;2.57;;
2772;SDS011;1394;47.044;15.744;2022-12-13T12:34:43;25.50;;;2.30;;
2772;SDS011;1394;47.044;15.744;2022-12-13T12:37:14;26.07;;;2.30;;
2772;SDS011;1394;47.044;15.744;2022-12-13T12:39:57;25.43;;;2.40;;
2772;SDS011;1394;47.044;15.744;2022-12-13T12:42:39;25.33;;;2.10;;
2772;SDS011;1394;47.044;15.744;2022-12-13T12:45:15;25.77;;;2.30;;
2772;SDS011;1394;47.044;15.744;2022-12-13T12:47:52;25.70;;;1.90;;
2772;SDS011;1394;47.044;15.744;2022-12-13T12:50:23;25.77;;;2.63;;
2772;SDS011;1394;47.044;15.744;2022-12-13T12:52:55;25.60;;;2.10;;
2772;SDS011;1394;47.044;15.744;2022-12-13T12:55:27;25.50;;;2.30;;
2772;SDS011;1394;47.044;15.744;2022-12-13T12:57:58;25.83;;;2.50;;
2772;SDS011;1394;47.044;15.744;2022-12-13T13:03:16;26.07;;;2.03;;
2772;SDS011;1394;47.044;15.744;2022-12-13T13:05:46;25.90;;;2.53;;
2772;SDS011;1394;47.044;15.744;2022-12-13T13:08:18;25.73;;;2.37;;
2772;SDS011;1394;47.044;15.744;2022-12-13T13:10:46;26.00;;;2.90;;
2772;SDS011;1394;47.044;15.744;2022-12-13T13:16:30;25.80;;;2.13;;
2772;SDS011;1394;47.044;15.744;2022-12-13T13:19:00;27.20;;;4.00;;
2772;SDS011;1394;47.044;15.744;2022-12-13T13:21:31;26.20;;;2.57;;
2772;SDS011;1394;47.044;15.744;2022-12-13T13:26:41;25.80;;;2.50;;
2772;SDS011;1394;47.044;15.744;2022-12-13T13:32:22;26.00;;;2.30;;
2772;SDS011;1394;47.044;15.744;2022-12-13T13:34:51;25.80;;;2.30;;
2772;SDS011;1394;47.044;15.744;2022-12-13T13:40:02;25.47;;;2.30;;
2772;SDS011;1394;47.044;15.744;2022-12-13T13:43:00;25.80;;;2.50;;
2772;SDS011;1394;47.044;15.744;2022-12-13T13:45:28;25.77;;;2.37;;
2772;SDS011;1394;47.044;15.744;2022-12-13T13:48:09;25.60;;;2.20;;
2772;SDS011;1394;47.044;15.744;2022-12-13T13:50:46;25.20;;;2.10;;
2772;SDS011;1394;47.044;15.744;2022-12-13T13:53:29;27.10;;;2.80;;
2772;SDS011;1394;47.044;15.744;2022-12-13T13:56:04;25.50;;;2.40;;
2772;SDS011;1394;47.044;15.744;2022-12-13T13:59:01;25.50;;;2.50;;
2772;SDS011;1394;47.044;15.744;2022-12-13T14:01:46;25.70;;;2.53;;
2772;SDS011;1394;47.044;15.744;2022-12-13T14:07:20;25.87;;;2.50;;
2772;SDS011;1394;47.044;15.744;2022-12-13T14:09:58;25.53;;;2.43;;
2772;SDS011;1394;47.044;15.744;2022-12-13T14:12:36;25.90;;;2.60;;
2772;SDS011;1394;47.044;15.744;2022-12-13T14:15:23;25.77;;;2.53;;
2772;SDS011;1394;47.044;15.744;2022-12-13T14:20:44;25.57;;;2.50;;
2772;SDS011;1394;47.044;15.744;2022-12-13T14:23:16;25.50;;;2.37;;
2772;SDS011;1394;47.044;15.744;2022-12-13T14:25:52;25.90;;;2.53;;
2772;SDS011;1394;47.044;15.744;2022-12-13T14:28:24;26.87;;;2.83;;
2772;SDS011;1394;47.044;15.744;2022-12-13T14:30:53;25.90;;;2.33;;
2772;SDS011;1394;47.044;15.744;2022-12-13T14:33:22;26.00;;;2.80;;
2772;SDS011;1394;47.044;15.744;2022-12-13T14:35:50;25.83;;;2.63;;
2772;SDS011;1394;47.044;15.744;2022-12-13T14:38:20;25.70;;;2.50;;
2772;SDS011;1394;47.044;15.744;2022-12-13T14:40:49;25.90;;;2.67;;
2772;SDS011;1394;47.044;15.744;2022-12-13T14:43:21;25.27;;;2.30;;
2772;SDS011;1394;47.044;15.744;2022-12-13T14:45:51;26.10;;;3.00;;
2772;SDS011;1394;47.044;15.744;2022-12-13T14:48:19;25.50;;;2.40;;
2772;SDS011;1394;47.044;15.744;2022-12-13T14:50:46;25.90;;;2.60;;
2772;SDS011;1394;47.044;15.744;2022-12-13T14:53:27;26.83;;;3.10;;
2772;SDS011;1394;47.044;15.744;2022-12-13T14:56:02;26.07;;;3.00;;
2772;SDS011;1394;47.044;15.744;2022-12-13T14:58:30;26.30;;;2.90;;
2772;SDS011;1394;47.044;15.744;2022-12-13T15:00:57;26.07;;;2.83;;
2772;SDS011;1394;47.044;15.744;2022-12-13T15:03:25;26.07;;;3.20;;
2772;SDS011;1394;47.044;15.744;2022-12-13T15:05:53;30.30;;;3.53;;
2772;SDS011;1394;47.044;15.744;2022-12-13T15:08:22;26.20;;;3.17;;
2772;SDS011;1394;47.044;15.744;2022-12-13T15:10:51;25.73;;;2.87;;
2772;SDS011;1394;47.044;15.744;2022-12-13T15:13:24;26.17;;;3.37;;
2772;SDS011;1394;47.044;15.744;2022-12-13T15:15:57;26.43;;;3.60;;
2772;SDS011;1394;47.044;15.744;2022-12-13T15:18:27;25.77;;;3.10;;
2772;SDS011;1394;47.044;15.744;2022-12-13T15:20:55;26.20;;;3.20;;
2772;SDS011;1394;47.044;15.744;2022-12-13T15:23:23;26.77;;;3.63;;
2772;SDS011;1394;47.044;15.744;2022-12-13T15:25:56;26.50;;;3.37;;
2772;SDS011;1394;47.044;15.744;2022-12-13T15:28:27;28.67;;;3.50;;
2772;SDS011;1394;47.044;15.744;2022-12-13T15:30:55;26.93;;;3.30;;
2772;SDS011;1394;47.044;15.744;2022-12-13T15:33:23;27.07;;;3.30;;